sensor_id;sensor_type;location;lat;lon;timestamp;P1;durP1;ratioP1;P2;durP2;ratioP2
21166;SDS011;10741;52.272;9.580;2022-08-14T00:02:02;8.57;;;7.80;;
21166;SDS011;10741;52.272;9.580;2022-08-14T00:04:29;8.10;;;7.40;;
21166;SDS011;10741;52.272;9.580;2022-08-14T00:06:56;8.33;;;7.47;;
21166;SDS011;10741;52.272;9.580;2022-08-14T00:09:22;8.97;;;8.17;;
21166;SDS011;10741;52.272;9.580;2022-08-14T00:11:48;9.03;;;8.20;;
21166;SDS011;10741;52.272;9.580;2022-08-14T00:14:14;8.37;;;7.70;;
21166;SDS011;10741;52.272;9.580;2022-08-14T00:16:40;8.10;;;7.50;;
21166;SDS011;10741;52.272;9.580;2022-08-14T00:19:06;7.53;;;6.93;;
21166;SDS011;10741;52.272;9.580;2022-08-14T00:21:32;8.73;;;8.03;;
21166;SDS011;10741;52.272;9.580;2022-08-14T00:23:58;8.53;;;7.70;;
21166;SDS011;10741;52.272;9.580;2022-08-14T00:26:23;7.87;;;7.13;;
21166;SDS011;10741;52.272;9.580;2022-08-14T00:28:50;7.47;;;6.77;;
21166;SDS011;10741;52.272;9.580;2022-08-14T00:31:16;7.97;;;7.03;;
21166;SDS011;10741;52.272;9.580;2022-08-14T00:33:43;8.17;;;7.47;;
21166;SDS011;10741;52.272;9.580;2022-08-14T00:36:09;7.90;;;7.10;;
21166;SDS011;10741;52.272;9.580;2022-08-14T00:38:35;7.90;;;7.10;;
21166;SDS011;10741;52.272;9.580;2022-08-14T00:41:04;8.03;;;7.33;;
21166;SDS011;10741;52.272;9.580;2022-08-14T00:43:32;9.00;;;8.27;;
21166;SDS011;10741;52.272;9.580;2022-08-14T00:46:03;7.77;;;7.07;;
21166;SDS011;10741;52.272;9.580;2022-08-14T00:48:30;8.40;;;7.60;;
21166;SDS011;10741;52.272;9.580;2022-08-14T00:50:56;7.47;;;6.63;;
21166;SDS011;10741;52.272;9.580;2022-08-14T00:53:22;8.40;;;7.60;;
21166;SDS011;10741;52.272;9.580;2022-08-14T00:55:50;7.53;;;6.93;;
21166;SDS011;10741;52.272;9.580;2022-08-14T00:58:28;8.13;;;7.43;;
21166;SDS011;10741;52.272;9.580;2022-08-14T01:00:57;7.70;;;7.00;;
21166;SDS011;10741;52.272;9.580;2022-08-14T01:03:30;8.20;;;7.47;;
21166;SDS011;10741;52.272;9.580;2022-08-14T01:06:03;8.50;;;7.80;;
21166;SDS011;10741;52.272;9.580;2022-08-14T01:08:32;7.50;;;6.90;;
21166;SDS011;10741;52.272;9.580;2022-08-14T01:10:58;8.13;;;7.33;;
21166;SDS011;10741;52.272;9.580;2022-08-14T01:13:26;7.77;;;7.07;;
21166;SDS011;10741;52.272;9.580;2022-08-14T01:15:55;8.67;;;7.87;;
21166;SDS011;10741;52.272;9.580;2022-08-14T01:18:22;9.60;;;8.53;;
21166;SDS011;10741;52.272;9.580;2022-08-14T01:21:08;8.27;;;7.43;;
21166;SDS011;10741;52.272;9.580;2022-08-14T01:23:40;8.57;;;7.87;;
21166;SDS011;10741;52.272;9.580;2022-08-14T01:26:11;9.07;;;8.27;;
21166;SDS011;10741;52.272;9.580;2022-08-14T01:28:40;8.70;;;7.90;;
21166;SDS011;10741;52.272;9.580;2022-08-14T01:31:11;8.70;;;7.87;;
21166;SDS011;10741;52.272;9.580;2022-08-14T01:33:40;8.60;;;7.60;;
21166;SDS011;10741;52.272;9.580;2022-08-14T01:36:10;8.17;;;7.50;;
21166;SDS011;10741;52.272;9.580;2022-08-14T01:38:38;8.23;;;7.53;;
21166;SDS011;10741;52.272;9.580;2022-08-14T01:41:07;9.03;;;8.23;;
21166;SDS011;10741;52.272;9.580;2022-08-14T01:46:31;7.90;;;7.30;;
21166;SDS011;10741;52.272;9.580;2022-08-14T01:48:59;8.10;;;7.40;;
21166;SDS011;10741;52.272;9.580;2022-08-14T01:51:28;8.13;;;7.43;;
21166;SDS011;10741;52.272;9.580;2022-08-14T01:53:56;9.60;;;7.87;;
21166;SDS011;10741;52.272;9.580;2022-08-14T01:56:31;7.80;;;7.20;;
21166;SDS011;10741;52.272;9.580;2022-08-14T01:59:04;7.87;;;7.27;;
21166;SDS011;10741;52.272;9.580;2022-08-14T02:01:32;8.60;;;7.80;;
21166;SDS011;10741;52.272;9.580;2022-08-14T02:04:03;8.77;;;7.97;;
21166;SDS011;10741;52.272;9.580;2022-08-14T02:06:29;8.77;;;7.60;;
21166;SDS011;10741;52.272;9.580;2022-08-14T02:08:55;8.70;;;7.80;;
21166;SDS011;10741;52.272;9.580;2022-08-14T02:11:22;8.50;;;7.80;;
21166;SDS011;10741;52.272;9.580;2022-08-14T02:13:51;9.47;;;7.97;;
21166;SDS011;10741;52.272;9.580;2022-08-14T02:16:21;8.40;;;7.60;;
21166;SDS011;10741;52.272;9.580;2022-08-14T02:18:51;9.87;;;8.90;;
21166;SDS011;10741;52.272;9.580;2022-08-14T02:21:18;11.23;;;8.30;;
21166;SDS011;10741;52.272;9.580;2022-08-14T02:23:45;10.70;;;9.13;;
21166;SDS011;10741;52.272;9.580;2022-08-14T02:26:14;9.90;;;9.00;;
21166;SDS011;10741;52.272;9.580;2022-08-14T02:28:45;9.37;;;8.63;;
21166;SDS011;10741;52.272;9.580;2022-08-14T02:31:12;9.63;;;8.67;;
21166;SDS011;10741;52.272;9.580;2022-08-14T02:33:38;13.17;;;8.83;;
21166;SDS011;10741;52.272;9.580;2022-08-14T02:36:06;9.00;;;8.07;;
21166;SDS011;10741;52.272;9.580;2022-08-14T02:38:33;9.17;;;8.27;;
21166;SDS011;10741;52.272;9.580;2022-08-14T02:40:59;8.73;;;7.93;;
21166;SDS011;10741;52.272;9.580;2022-08-14T02:43:25;8.67;;;7.87;;
21166;SDS011;10741;52.272;9.580;2022-08-14T02:45:53;8.07;;;7.33;;
21166;SDS011;10741;52.272;9.580;2022-08-14T02:48:19;8.70;;;7.90;;
21166;SDS011;10741;52.272;9.580;2022-08-14T02:50:44;10.27;;;8.67;;
21166;SDS011;10741;52.272;9.580;2022-08-14T02:53:10;8.57;;;7.77;;
21166;SDS011;10741;52.272;9.580;2022-08-14T02:55:36;8.43;;;7.73;;
21166;SDS011;10741;52.272;9.580;2022-08-14T02:58:04;8.63;;;7.87;;
21166;SDS011;10741;52.272;9.580;2022-08-14T03:00:34;8.03;;;7.23;;
21166;SDS011;10741;52.272;9.580;2022-08-14T03:03:02;8.57;;;7.77;;
21166;SDS011;10741;52.272;9.580;2022-08-14T03:05:28;8.57;;;7.67;;
21166;SDS011;10741;52.272;9.580;2022-08-14T03:08:08;8.37;;;7.57;;
21166;SDS011;10741;52.272;9.580;2022-08-14T03:10:36;10.07;;;8.77;;
21166;SDS011;10741;52.272;9.580;2022-08-14T03:13:02;8.93;;;7.93;;
21166;SDS011;10741;52.272;9.580;2022-08-14T03:15:29;10.40;;;8.17;;
21166;SDS011;10741;52.272;9.580;2022-08-14T03:17:57;8.40;;;7.70;;
21166;SDS011;10741;52.272;9.580;2022-08-14T03:20:24;8.20;;;7.40;;
21166;SDS011;10741;52.272;9.580;2022-08-14T03:22:52;9.87;;;8.23;;
21166;SDS011;10741;52.272;9.580;2022-08-14T03:25:20;8.07;;;7.37;;
21166;SDS011;10741;52.272;9.580;2022-08-14T03:27:47;9.63;;;8.73;;
21166;SDS011;10741;52.272;9.580;2022-08-14T03:30:12;9.53;;;8.60;;
21166;SDS011;10741;52.272;9.580;2022-08-14T03:32:38;8.73;;;7.93;;
21166;SDS011;10741;52.272;9.580;2022-08-14T03:35:04;9.47;;;8.57;;
21166;SDS011;10741;52.272;9.580;2022-08-14T03:37:31;8.73;;;7.93;;
21166;SDS011;10741;52.272;9.580;2022-08-14T03:39:57;9.80;;;8.87;;
21166;SDS011;10741;52.272;9.580;2022-08-14T03:42:23;8.73;;;7.93;;
21166;SDS011;10741;52.272;9.580;2022-08-14T03:44:49;10.17;;;9.13;;
21166;SDS011;10741;52.272;9.580;2022-08-14T03:47:15;9.67;;;8.70;;
21166;SDS011;10741;52.272;9.580;2022-08-14T03:49:41;9.57;;;8.57;;
21166;SDS011;10741;52.272;9.580;2022-08-14T03:52:09;8.27;;;7.57;;
21166;SDS011;10741;52.272;9.580;2022-08-14T03:54:35;9.80;;;8.23;;
21166;SDS011;10741;52.272;9.580;2022-08-14T03:57:02;8.47;;;7.63;;
21166;SDS011;10741;52.272;9.580;2022-08-14T03:59:30;10.20;;;8.57;;
21166;SDS011;10741;52.272;9.580;2022-08-14T04:01:56;10.60;;;8.47;;
21166;SDS011;10741;52.272;9.580;2022-08-14T04:04:22;8.90;;;8.20;;
21166;SDS011;10741;52.272;9.580;2022-08-14T04:06:48;10.17;;;9.03;;
21166;SDS011;10741;52.272;9.580;2022-08-14T04:09:15;10.17;;;9.27;;
21166;SDS011;10741;52.272;9.580;2022-08-14T04:11:41;10.23;;;9.23;;
21166;SDS011;10741;52.272;9.580;2022-08-14T04:14:07;10.27;;;9.27;;
21166;SDS011;10741;52.272;9.580;2022-08-14T04:16:33;11.13;;;10.20;;
21166;SDS011;10741;52.272;9.580;2022-08-14T04:18:59;12.37;;;11.17;;
21166;SDS011;10741;52.272;9.580;2022-08-14T04:21:28;12.43;;;11.23;;
21166;SDS011;10741;52.272;9.580;2022-08-14T04:23:55;12.10;;;10.93;;
21166;SDS011;10741;52.272;9.580;2022-08-14T04:26:22;12.60;;;11.50;;
21166;SDS011;10741;52.272;9.580;2022-08-14T04:28:49;11.20;;;10.20;;
21166;SDS011;10741;52.272;9.580;2022-08-14T04:31:15;11.80;;;9.83;;
21166;SDS011;10741;52.272;9.580;2022-08-14T04:33:42;11.53;;;10.37;;
21166;SDS011;10741;52.272;9.580;2022-08-14T04:36:08;11.47;;;10.47;;
21166;SDS011;10741;52.272;9.580;2022-08-14T04:38:33;9.87;;;8.97;;
21166;SDS011;10741;52.272;9.580;2022-08-14T04:41:18;13.37;;;10.43;;
21166;SDS011;10741;52.272;9.580;2022-08-14T04:44:03;12.77;;;9.87;;
21166;SDS011;10741;52.272;9.580;2022-08-14T04:46:29;10.60;;;9.60;;
21166;SDS011;10741;52.272;9.580;2022-08-14T04:48:55;10.87;;;9.87;;
21166;SDS011;10741;52.272;9.580;2022-08-14T04:51:21;11.73;;;10.43;;
21166;SDS011;10741;52.272;9.580;2022-08-14T04:53:50;12.63;;;11.47;;
21166;SDS011;10741;52.272;9.580;2022-08-14T04:56:18;11.40;;;10.20;;
21166;SDS011;10741;52.272;9.580;2022-08-14T04:58:51;12.97;;;11.77;;
21166;SDS011;10741;52.272;9.580;2022-08-14T05:01:23;11.93;;;10.83;;
21166;SDS011;10741;52.272;9.580;2022-08-14T05:03:50;12.57;;;11.47;;
21166;SDS011;10741;52.272;9.580;2022-08-14T05:06:17;15.67;;;12.03;;
21166;SDS011;10741;52.272;9.580;2022-08-14T05:08:43;12.80;;;11.63;;
21166;SDS011;10741;52.272;9.580;2022-08-14T05:11:09;12.33;;;11.23;;
21166;SDS011;10741;52.272;9.580;2022-08-14T05:13:35;14.87;;;11.73;;
21166;SDS011;10741;52.272;9.580;2022-08-14T05:16:02;12.60;;;11.40;;
21166;SDS011;10741;52.272;9.580;2022-08-14T05:18:31;12.97;;;11.50;;
21166;SDS011;10741;52.272;9.580;2022-08-14T05:20:59;13.03;;;11.60;;
21166;SDS011;10741;52.272;9.580;2022-08-14T05:23:29;12.07;;;10.77;;
21166;SDS011;10741;52.272;9.580;2022-08-14T05:25:57;11.27;;;10.33;;
21166;SDS011;10741;52.272;9.580;2022-08-14T05:28:27;12.13;;;11.03;;
21166;SDS011;10741;52.272;9.580;2022-08-14T05:30:55;11.83;;;10.73;;
21166;SDS011;10741;52.272;9.580;2022-08-14T05:33:25;17.17;;;11.97;;
21166;SDS011;10741;52.272;9.580;2022-08-14T05:35:53;12.87;;;11.67;;
21166;SDS011;10741;52.272;9.580;2022-08-14T05:38:25;12.47;;;11.20;;
21166;SDS011;10741;52.272;9.580;2022-08-14T05:40:54;13.03;;;11.90;;
21166;SDS011;10741;52.272;9.580;2022-08-14T05:43:21;12.63;;;11.23;;
21166;SDS011;10741;52.272;9.580;2022-08-14T05:45:47;11.87;;;10.73;;
21166;SDS011;10741;52.272;9.580;2022-08-14T05:48:13;11.70;;;10.60;;
21166;SDS011;10741;52.272;9.580;2022-08-14T05:50:40;12.67;;;11.37;;
21166;SDS011;10741;52.272;9.580;2022-08-14T05:53:06;12.03;;;10.93;;
21166;SDS011;10741;52.272;9.580;2022-08-14T05:55:32;12.53;;;10.57;;
21166;SDS011;10741;52.272;9.580;2022-08-14T05:57:59;12.23;;;11.13;;
21166;SDS011;10741;52.272;9.580;2022-08-14T06:03:00;11.47;;;10.33;;
21166;SDS011;10741;52.272;9.580;2022-08-14T06:05:27;12.60;;;11.40;;
21166;SDS011;10741;52.272;9.580;2022-08-14T06:07:54;12.00;;;10.73;;
21166;SDS011;10741;52.272;9.580;2022-08-14T06:10:21;11.80;;;10.70;;
21166;SDS011;10741;52.272;9.580;2022-08-14T06:12:46;11.47;;;10.37;;
21166;SDS011;10741;52.272;9.580;2022-08-14T06:15:12;12.47;;;9.53;;
21166;SDS011;10741;52.272;9.580;2022-08-14T06:17:48;10.73;;;9.67;;
21166;SDS011;10741;52.272;9.580;2022-08-14T06:20:15;11.50;;;10.40;;
21166;SDS011;10741;52.272;9.580;2022-08-14T06:22:42;10.60;;;9.70;;
21166;SDS011;10741;52.272;9.580;2022-08-14T06:25:10;10.90;;;9.80;;
21166;SDS011;10741;52.272;9.580;2022-08-14T06:27:38;10.90;;;9.80;;
21166;SDS011;10741;52.272;9.580;2022-08-14T06:30:18;11.20;;;10.07;;
21166;SDS011;10741;52.272;9.580;2022-08-14T06:32:46;11.73;;;10.63;;
21166;SDS011;10741;52.272;9.580;2022-08-14T06:35:12;10.87;;;9.87;;
21166;SDS011;10741;52.272;9.580;2022-08-14T06:37:39;10.30;;;9.40;;
21166;SDS011;10741;52.272;9.580;2022-08-14T06:40:07;10.73;;;9.73;;
21166;SDS011;10741;52.272;9.580;2022-08-14T06:42:34;11.63;;;10.17;;
21166;SDS011;10741;52.272;9.580;2022-08-14T06:45:01;11.13;;;10.00;;
21166;SDS011;10741;52.272;9.580;2022-08-14T06:47:27;10.50;;;9.50;;
21166;SDS011;10741;52.272;9.580;2022-08-14T06:49:53;10.83;;;9.83;;
21166;SDS011;10741;52.272;9.580;2022-08-14T06:52:18;11.17;;;9.90;;
21166;SDS011;10741;52.272;9.580;2022-08-14T06:54:44;11.60;;;10.40;;
21166;SDS011;10741;52.272;9.580;2022-08-14T06:57:10;11.27;;;10.10;;
21166;SDS011;10741;52.272;9.580;2022-08-14T06:59:36;9.97;;;9.00;;
21166;SDS011;10741;52.272;9.580;2022-08-14T07:02:02;10.60;;;9.57;;
21166;SDS011;10741;52.272;9.580;2022-08-14T07:04:46;12.13;;;10.40;;
21166;SDS011;10741;52.272;9.580;2022-08-14T07:07:37;11.40;;;10.30;;
21166;SDS011;10741;52.272;9.580;2022-08-14T07:10:05;10.97;;;9.97;;
21166;SDS011;10741;52.272;9.580;2022-08-14T07:12:32;11.00;;;9.90;;
21166;SDS011;10741;52.272;9.580;2022-08-14T07:14:58;10.23;;;9.10;;
21166;SDS011;10741;52.272;9.580;2022-08-14T07:17:24;10.90;;;9.73;;
21166;SDS011;10741;52.272;9.580;2022-08-14T07:19:50;11.00;;;9.87;;
21166;SDS011;10741;52.272;9.580;2022-08-14T07:22:16;11.43;;;10.33;;
21166;SDS011;10741;52.272;9.580;2022-08-14T07:24:42;12.63;;;9.37;;
21166;SDS011;10741;52.272;9.580;2022-08-14T07:27:08;11.20;;;10.00;;
21166;SDS011;10741;52.272;9.580;2022-08-14T07:29:34;11.13;;;9.90;;
21166;SDS011;10741;52.272;9.580;2022-08-14T07:32:00;10.13;;;8.63;;
21166;SDS011;10741;52.272;9.580;2022-08-14T07:34:25;11.07;;;9.67;;
21166;SDS011;10741;52.272;9.580;2022-08-14T07:36:51;10.87;;;9.87;;
21166;SDS011;10741;52.272;9.580;2022-08-14T07:39:18;10.33;;;9.43;;
21166;SDS011;10741;52.272;9.580;2022-08-14T07:41:44;10.40;;;8.97;;
21166;SDS011;10741;52.272;9.580;2022-08-14T07:44:10;10.33;;;9.33;;
21166;SDS011;10741;52.272;9.580;2022-08-14T07:46:35;9.63;;;8.63;;
21166;SDS011;10741;52.272;9.580;2022-08-14T07:49:02;10.23;;;9.20;;
21166;SDS011;10741;52.272;9.580;2022-08-14T07:51:28;10.53;;;8.50;;
21166;SDS011;10741;52.272;9.580;2022-08-14T07:53:54;9.97;;;9.00;;
21166;SDS011;10741;52.272;9.580;2022-08-14T07:56:21;9.77;;;8.80;;
21166;SDS011;10741;52.272;9.580;2022-08-14T07:58:47;9.33;;;8.33;;
21166;SDS011;10741;52.272;9.580;2022-08-14T08:01:15;9.23;;;8.50;;
21166;SDS011;10741;52.272;9.580;2022-08-14T08:03:45;9.27;;;8.43;;
21166;SDS011;10741;52.272;9.580;2022-08-14T08:06:11;8.70;;;7.87;;
21166;SDS011;10741;52.272;9.580;2022-08-14T08:08:41;8.87;;;8.03;;
21166;SDS011;10741;52.272;9.580;2022-08-14T08:11:07;9.40;;;8.50;;
21166;SDS011;10741;52.272;9.580;2022-08-14T08:13:35;9.23;;;8.33;;
21166;SDS011;10741;52.272;9.580;2022-08-14T08:16:05;9.47;;;8.67;;
21166;SDS011;10741;52.272;9.580;2022-08-14T08:18:32;9.50;;;8.53;;
21166;SDS011;10741;52.272;9.580;2022-08-14T08:20:58;10.77;;;8.33;;
21166;SDS011;10741;52.272;9.580;2022-08-14T08:23:24;10.43;;;9.10;;
21166;SDS011;10741;52.272;9.580;2022-08-14T08:25:53;9.67;;;8.77;;
21166;SDS011;10741;52.272;9.580;2022-08-14T08:30:49;10.87;;;8.20;;
21166;SDS011;10741;52.272;9.580;2022-08-14T08:33:16;8.30;;;7.47;;
21166;SDS011;10741;52.272;9.580;2022-08-14T08:35:46;8.67;;;7.87;;
21166;SDS011;10741;52.272;9.580;2022-08-14T08:38:14;9.47;;;8.57;;
21166;SDS011;10741;52.272;9.580;2022-08-14T08:40:43;8.70;;;7.90;;
21166;SDS011;10741;52.272;9.580;2022-08-14T08:43:21;8.60;;;7.70;;
21166;SDS011;10741;52.272;9.580;2022-08-14T08:48:42;9.30;;;8.50;;
21166;SDS011;10741;52.272;9.580;2022-08-14T08:51:08;9.50;;;8.00;;
21166;SDS011;10741;52.272;9.580;2022-08-14T08:53:54;9.10;;;8.20;;
21166;SDS011;10741;52.272;9.580;2022-08-14T08:56:38;9.47;;;8.67;;
21166;SDS011;10741;52.272;9.580;2022-08-14T08:59:25;9.23;;;8.53;;
21166;SDS011;10741;52.272;9.580;2022-08-14T09:01:58;9.93;;;7.50;;
21166;SDS011;10741;52.272;9.580;2022-08-14T09:04:33;7.97;;;7.17;;
21166;SDS011;10741;52.272;9.580;2022-08-14T09:06:59;8.60;;;7.73;;
21166;SDS011;10741;52.272;9.580;2022-08-14T09:09:26;8.87;;;8.03;;
21166;SDS011;10741;52.272;9.580;2022-08-14T09:11:53;8.73;;;7.93;;
21166;SDS011;10741;52.272;9.580;2022-08-14T09:14:24;9.70;;;8.70;;
21166;SDS011;10741;52.272;9.580;2022-08-14T09:16:51;8.70;;;7.80;;
21166;SDS011;10741;52.272;9.580;2022-08-14T09:19:18;10.47;;;8.63;;
21166;SDS011;10741;52.272;9.580;2022-08-14T09:21:45;8.90;;;8.00;;
21166;SDS011;10741;52.272;9.580;2022-08-14T09:24:11;8.83;;;8.03;;
21166;SDS011;10741;52.272;9.580;2022-08-14T09:26:37;8.53;;;7.73;;
21166;SDS011;10741;52.272;9.580;2022-08-14T09:29:04;8.00;;;7.20;;
21166;SDS011;10741;52.272;9.580;2022-08-14T09:31:32;10.30;;;7.57;;
21166;SDS011;10741;52.272;9.580;2022-08-14T09:34:07;8.90;;;8.00;;
21166;SDS011;10741;52.272;9.580;2022-08-14T09:37:01;10.50;;;8.17;;
21166;SDS011;10741;52.272;9.580;2022-08-14T09:40:03;8.37;;;7.57;;
21166;SDS011;10741;52.272;9.580;2022-08-14T09:42:39;8.40;;;7.50;;
21166;SDS011;10741;52.272;9.580;2022-08-14T09:45:16;8.10;;;7.43;;
21166;SDS011;10741;52.272;9.580;2022-08-14T09:47:47;8.30;;;7.50;;
21166;SDS011;10741;52.272;9.580;2022-08-14T09:53:01;8.17;;;7.37;;
21166;SDS011;10741;52.272;9.580;2022-08-14T09:55:30;8.20;;;7.50;;
21166;SDS011;10741;52.272;9.580;2022-08-14T10:00:41;8.47;;;7.67;;
21166;SDS011;10741;52.272;9.580;2022-08-14T10:03:29;7.10;;;6.50;;
21166;SDS011;10741;52.272;9.580;2022-08-14T10:06:08;7.87;;;7.10;;
21166;SDS011;10741;52.272;9.580;2022-08-14T10:08:40;8.03;;;7.17;;
21166;SDS011;10741;52.272;9.580;2022-08-14T10:11:19;8.37;;;7.43;;
21166;SDS011;10741;52.272;9.580;2022-08-14T10:13:47;8.00;;;7.30;;
21166;SDS011;10741;52.272;9.580;2022-08-14T10:16:19;7.93;;;7.23;;
21166;SDS011;10741;52.272;9.580;2022-08-14T10:18:48;9.27;;;6.60;;
21166;SDS011;10741;52.272;9.580;2022-08-14T10:21:25;7.47;;;6.70;;
21166;SDS011;10741;52.272;9.580;2022-08-14T10:23:50;7.83;;;6.73;;
21166;SDS011;10741;52.272;9.580;2022-08-14T10:26:17;7.30;;;6.60;;
21166;SDS011;10741;52.272;9.580;2022-08-14T10:28:48;7.93;;;7.13;;
21166;SDS011;10741;52.272;9.580;2022-08-14T10:31:18;7.53;;;6.73;;
21166;SDS011;10741;52.272;9.580;2022-08-14T10:33:58;7.60;;;6.90;;
21166;SDS011;10741;52.272;9.580;2022-08-14T10:36:39;8.10;;;7.30;;
21166;SDS011;10741;52.272;9.580;2022-08-14T10:39:20;8.17;;;7.37;;
21166;SDS011;10741;52.272;9.580;2022-08-14T10:41:47;8.73;;;7.27;;
21166;SDS011;10741;52.272;9.580;2022-08-14T10:44:30;8.23;;;7.43;;
21166;SDS011;10741;52.272;9.580;2022-08-14T10:46:59;7.30;;;6.60;;
21166;SDS011;10741;52.272;9.580;2022-08-14T10:49:32;7.80;;;7.10;;
21166;SDS011;10741;52.272;9.580;2022-08-14T10:57:09;7.90;;;7.20;;
21166;SDS011;10741;52.272;9.580;2022-08-14T10:59:43;8.93;;;8.03;;
21166;SDS011;10741;52.272;9.580;2022-08-14T11:02:35;7.87;;;7.17;;
21166;SDS011;10741;52.272;9.580;2022-08-14T11:07:36;7.43;;;6.70;;
21166;SDS011;10741;52.272;9.580;2022-08-14T11:12:49;8.57;;;6.90;;
21166;SDS011;10741;52.272;9.580;2022-08-14T11:15:18;7.60;;;6.90;;
21166;SDS011;10741;52.272;9.580;2022-08-14T11:17:45;8.43;;;7.63;;
21166;SDS011;10741;52.272;9.580;2022-08-14T11:20:13;8.13;;;7.30;;
21166;SDS011;10741;52.272;9.580;2022-08-14T11:22:40;8.00;;;7.30;;
21166;SDS011;10741;52.272;9.580;2022-08-14T11:25:07;8.03;;;7.23;;
21166;SDS011;10741;52.272;9.580;2022-08-14T11:27:35;8.23;;;7.47;;
21166;SDS011;10741;52.272;9.580;2022-08-14T11:30:04;7.43;;;6.70;;
21166;SDS011;10741;52.272;9.580;2022-08-14T11:32:35;8.07;;;7.33;;
21166;SDS011;10741;52.272;9.580;2022-08-14T11:35:03;8.67;;;7.77;;
21166;SDS011;10741;52.272;9.580;2022-08-14T11:37:30;9.07;;;7.57;;
21166;SDS011;10741;52.272;9.580;2022-08-14T11:39:59;7.50;;;6.80;;
21166;SDS011;10741;52.272;9.580;2022-08-14T11:42:26;9.67;;;7.33;;
21166;SDS011;10741;52.272;9.580;2022-08-14T11:44:55;7.70;;;6.90;;
21166;SDS011;10741;52.272;9.580;2022-08-14T11:47:22;8.53;;;6.53;;
21166;SDS011;10741;52.272;9.580;2022-08-14T11:49:48;8.67;;;6.67;;
21166;SDS011;10741;52.272;9.580;2022-08-14T11:52:15;8.03;;;6.70;;
21166;SDS011;10741;52.272;9.580;2022-08-14T11:54:43;7.73;;;7.00;;
21166;SDS011;10741;52.272;9.580;2022-08-14T11:57:14;9.00;;;7.23;;
21166;SDS011;10741;52.272;9.580;2022-08-14T11:59:41;8.07;;;7.37;;
21166;SDS011;10741;52.272;9.580;2022-08-14T12:02:08;9.30;;;7.10;;
21166;SDS011;10741;52.272;9.580;2022-08-14T12:04:34;7.70;;;7.00;;
21166;SDS011;10741;52.272;9.580;2022-08-14T12:07:02;8.20;;;7.40;;
21166;SDS011;10741;52.272;9.580;2022-08-14T12:09:32;8.17;;;7.47;;
21166;SDS011;10741;52.272;9.580;2022-08-14T12:12:19;7.23;;;6.53;;
21166;SDS011;10741;52.272;9.580;2022-08-14T12:14:47;7.77;;;7.07;;
21166;SDS011;10741;52.272;9.580;2022-08-14T12:17:16;8.43;;;7.63;;
21166;SDS011;10741;52.272;9.580;2022-08-14T12:19:52;8.53;;;7.73;;
21166;SDS011;10741;52.272;9.580;2022-08-14T12:22:31;7.40;;;6.70;;
21166;SDS011;10741;52.272;9.580;2022-08-14T12:25:02;8.77;;;7.93;;
21166;SDS011;10741;52.272;9.580;2022-08-14T12:28:09;8.20;;;7.40;;
21166;SDS011;10741;52.272;9.580;2022-08-14T12:32:56;8.20;;;7.40;;
21166;SDS011;10741;52.272;9.580;2022-08-14T12:35:22;10.00;;;7.50;;
21166;SDS011;10741;52.272;9.580;2022-08-14T12:37:59;9.60;;;7.20;;
21166;SDS011;10741;52.272;9.580;2022-08-14T12:40:26;8.63;;;7.73;;
21166;SDS011;10741;52.272;9.580;2022-08-14T12:42:58;7.80;;;7.10;;
21166;SDS011;10741;52.272;9.580;2022-08-14T12:45:30;7.63;;;6.93;;
21166;SDS011;10741;52.272;9.580;2022-08-14T12:48:01;8.50;;;7.17;;
21166;SDS011;10741;52.272;9.580;2022-08-14T12:50:39;8.00;;;6.90;;
21166;SDS011;10741;52.272;9.580;2022-08-14T12:53:06;8.17;;;7.47;;
21166;SDS011;10741;52.272;9.580;2022-08-14T12:55:37;7.93;;;7.23;;
21166;SDS011;10741;52.272;9.580;2022-08-14T12:58:04;8.13;;;7.33;;
21166;SDS011;10741;52.272;9.580;2022-08-14T13:00:33;7.67;;;6.90;;
21166;SDS011;10741;52.272;9.580;2022-08-14T13:03:02;7.10;;;6.50;;
21166;SDS011;10741;52.272;9.580;2022-08-14T13:05:30;8.00;;;7.20;;
21166;SDS011;10741;52.272;9.580;2022-08-14T13:07:58;8.07;;;7.27;;
21166;SDS011;10741;52.272;9.580;2022-08-14T13:10:25;7.77;;;7.07;;
21166;SDS011;10741;52.272;9.580;2022-08-14T13:12:56;8.40;;;7.10;;
21166;SDS011;10741;52.272;9.580;2022-08-14T13:15:22;8.27;;;7.57;;
21166;SDS011;10741;52.272;9.580;2022-08-14T13:17:49;8.20;;;7.40;;
21166;SDS011;10741;52.272;9.580;2022-08-14T13:20:17;8.70;;;7.17;;
21166;SDS011;10741;52.272;9.580;2022-08-14T13:22:45;7.93;;;7.17;;
21166;SDS011;10741;52.272;9.580;2022-08-14T13:25:12;8.40;;;7.60;;
21166;SDS011;10741;52.272;9.580;2022-08-14T13:27:41;8.33;;;7.43;;
21166;SDS011;10741;52.272;9.580;2022-08-14T13:30:10;8.83;;;7.57;;
21166;SDS011;10741;52.272;9.580;2022-08-14T13:32:36;8.03;;;6.97;;
21166;SDS011;10741;52.272;9.580;2022-08-14T13:35:08;8.10;;;7.50;;
21166;SDS011;10741;52.272;9.580;2022-08-14T13:37:35;8.07;;;6.87;;
21166;SDS011;10741;52.272;9.580;2022-08-14T13:40:03;10.00;;;8.10;;
21166;SDS011;10741;52.272;9.580;2022-08-14T13:42:29;8.10;;;7.40;;
21166;SDS011;10741;52.272;9.580;2022-08-14T13:44:56;8.03;;;7.30;;
21166;SDS011;10741;52.272;9.580;2022-08-14T13:47:25;8.87;;;7.60;;
21166;SDS011;10741;52.272;9.580;2022-08-14T13:49:57;9.57;;;7.87;;
21166;SDS011;10741;52.272;9.580;2022-08-14T13:55:11;9.30;;;7.30;;
21166;SDS011;10741;52.272;9.580;2022-08-14T13:57:40;7.97;;;7.20;;
21166;SDS011;10741;52.272;9.580;2022-08-14T14:00:12;8.10;;;7.27;;
21166;SDS011;10741;52.272;9.580;2022-08-14T14:02:39;8.27;;;7.57;;
21166;SDS011;10741;52.272;9.580;2022-08-14T14:05:08;8.67;;;7.97;;
21166;SDS011;10741;52.272;9.580;2022-08-14T14:07:36;8.27;;;7.47;;
21166;SDS011;10741;52.272;9.580;2022-08-14T14:10:04;8.73;;;7.93;;
21166;SDS011;10741;52.272;9.580;2022-08-14T14:12:32;8.47;;;7.67;;
21166;SDS011;10741;52.272;9.580;2022-08-14T14:15:03;8.93;;;8.13;;
21166;SDS011;10741;52.272;9.580;2022-08-14T14:17:34;8.37;;;7.53;;
21166;SDS011;10741;52.272;9.580;2022-08-14T14:20:01;8.77;;;7.93;;
21166;SDS011;10741;52.272;9.580;2022-08-14T14:22:32;9.07;;;8.27;;
21166;SDS011;10741;52.272;9.580;2022-08-14T14:25:02;8.43;;;7.63;;
21166;SDS011;10741;52.272;9.580;2022-08-14T14:27:27;8.80;;;7.97;;
21166;SDS011;10741;52.272;9.580;2022-08-14T14:29:56;8.63;;;7.77;;
21166;SDS011;10741;52.272;9.580;2022-08-14T14:32:27;8.77;;;7.97;;
21166;SDS011;10741;52.272;9.580;2022-08-14T14:34:55;8.00;;;7.23;;
21166;SDS011;10741;52.272;9.580;2022-08-14T14:37:25;8.80;;;7.93;;
21166;SDS011;10741;52.272;9.580;2022-08-14T14:39:53;8.13;;;7.33;;
21166;SDS011;10741;52.272;9.580;2022-08-14T14:42:23;8.00;;;7.17;;
21166;SDS011;10741;52.272;9.580;2022-08-14T14:44:50;8.33;;;7.47;;
21166;SDS011;10741;52.272;9.580;2022-08-14T14:47:42;7.60;;;6.83;;
21166;SDS011;10741;52.272;9.580;2022-08-14T14:50:20;7.97;;;7.17;;
21166;SDS011;10741;52.272;9.580;2022-08-14T14:52:47;7.63;;;6.93;;
21166;SDS011;10741;52.272;9.580;2022-08-14T14:55:15;8.13;;;7.13;;
21166;SDS011;10741;52.272;9.580;2022-08-14T14:57:42;8.20;;;7.40;;
21166;SDS011;10741;52.272;9.580;2022-08-14T15:00:10;7.87;;;7.17;;
21166;SDS011;10741;52.272;9.580;2022-08-14T15:02:40;8.13;;;7.43;;
21166;SDS011;10741;52.272;9.580;2022-08-14T15:05:08;7.70;;;7.10;;
21166;SDS011;10741;52.272;9.580;2022-08-14T15:07:38;8.87;;;8.00;;
21166;SDS011;10741;52.272;9.580;2022-08-14T15:10:06;10.37;;;7.07;;
21166;SDS011;10741;52.272;9.580;2022-08-14T15:12:33;8.43;;;7.67;;
21166;SDS011;10741;52.272;9.580;2022-08-14T15:14:59;7.80;;;7.10;;
21166;SDS011;10741;52.272;9.580;2022-08-14T15:17:25;7.63;;;7.03;;
21166;SDS011;10741;52.272;9.580;2022-08-14T15:19:57;8.03;;;7.40;;
21166;SDS011;10741;52.272;9.580;2022-08-14T15:22:23;6.73;;;6.03;;
21166;SDS011;10741;52.272;9.580;2022-08-14T15:24:52;7.23;;;6.53;;